createdAt,value
2023-02-11T00:01:35.453Z,25.92
2023-02-11T00:05:37.145Z,26.67
2023-02-11T00:09:38.605Z,31.90
2023-02-11T00:13:40.291Z,31.50
2023-02-11T00:17:41.746Z,38.92
2023-02-11T00:21:43.223Z,13.63
2023-02-11T00:25:45.640Z,40.67
2023-02-11T00:29:47.126Z,33.95
2023-02-11T00:33:48.904Z,43.55
2023-02-11T00:37:52.632Z,36.03
2023-02-11T00:41:54.104Z,30.02
2023-02-11T00:45:55.574Z,35.33
2023-02-11T00:49:57.070Z,26.48
2023-02-11T00:53:58.554Z,39.30
2023-02-11T00:58:00.113Z,35.65
2023-02-11T01:02:01.643Z,34.10
2023-02-11T01:06:03.493Z,32.20
2023-02-11T01:10:05.383Z,23.10
2023-02-11T01:14:06.904Z,32.83
2023-02-11T01:18:08.333Z,25.50
2023-02-11T01:22:09.867Z,35.60
2023-02-11T01:26:11.410Z,21.90
2023-02-11T01:30:14.107Z,34.72
2023-02-11T01:34:16.158Z,26.85
2023-02-11T01:38:23.605Z,14.75
2023-02-11T01:42:25.124Z,25.17
2023-02-11T01:46:29.671Z,18.52
2023-02-11T01:50:31.647Z,8.00
2023-02-11T01:54:55.359Z,29.90
2023-02-11T01:59:03.846Z,24.17
2023-02-11T02:03:10.226Z,20.27
2023-02-11T02:07:19.802Z,17.92
2023-02-11T02:11:21.293Z,38.00
2023-02-11T02:15:34.502Z,10.55
2023-02-11T02:20:19.986Z,9.20
2023-02-11T02:24:39.701Z,12.02
2023-02-11T02:29:19.587Z,14.18
2023-02-11T02:33:25.376Z,33.58
2023-02-11T02:37:29.534Z,40.50
2023-02-11T02:41:34.286Z,38.65
2023-02-11T02:45:35.692Z,44.10
2023-02-11T02:49:37.089Z,27.15
2023-02-11T02:53:54.181Z,22.75
2023-02-11T02:58:10.468Z,39.90
2023-02-11T03:02:24.811Z,16.67
2023-02-11T03:06:48.333Z,22.77
2023-02-11T03:10:53.102Z,13.93
2023-02-11T03:14:54.588Z,26.95
2023-02-11T03:19:21.407Z,20.35
2023-02-11T03:23:35.169Z,22.60
2023-02-11T03:27:53.012Z,35.35
2023-02-11T03:32:00.572Z,33.63
2023-02-11T03:36:15.099Z,36.47
2023-02-11T03:40:23.652Z,35.90
2023-02-11T03:44:28.612Z,31.10
2023-02-11T03:48:34.883Z,39.10
2023-02-11T03:52:38.087Z,34.42
2023-02-11T03:56:51.115Z,37.78
2023-02-11T04:00:52.739Z,40.03
2023-02-11T04:04:54.315Z,34.65
2023-02-11T04:08:56.200Z,32.47
2023-02-11T04:12:57.658Z,38.40
2023-02-11T04:16:59.085Z,35.08
2023-02-11T04:21:00.601Z,25.23
2023-02-11T04:25:02.230Z,40.22
2023-02-11T04:29:03.724Z,9.35
2023-02-11T04:33:05.165Z,43.28
2023-02-11T04:37:06.754Z,45.22
2023-02-11T04:41:08.288Z,21.83
2023-02-11T04:45:09.830Z,49.65
2023-02-11T04:49:13.920Z,48.72
2023-02-11T04:53:15.363Z,48.80
2023-02-11T04:57:17.076Z,20.48
2023-02-11T05:01:18.652Z,38.88
2023-02-11T05:05:20.116Z,48.13
2023-02-11T05:09:21.728Z,45.33
2023-02-11T05:13:23.335Z,48.92
2023-02-11T05:17:24.831Z,48.45
2023-02-11T05:21:26.461Z,58.10
2023-02-11T05:25:27.856Z,39.72
2023-02-11T05:29:29.444Z,44.10
2023-02-11T05:33:31.006Z,40.35
2023-02-11T05:37:32.486Z,51.95
2023-02-11T05:41:33.989Z,44.30
2023-02-11T05:45:35.515Z,32.88
2023-02-11T05:49:36.974Z,49.70
2023-02-11T05:53:38.427Z,49.83
2023-02-11T05:57:39.901Z,58.50
2023-02-11T06:01:41.621Z,28.17
2023-02-11T06:05:44.888Z,50.33
2023-02-11T06:09:46.431Z,31.70
2023-02-11T06:13:47.855Z,62.70
2023-02-11T06:17:49.318Z,39.30
2023-02-11T06:21:50.740Z,60.20
2023-02-11T06:25:53.297Z,48.42
2023-02-11T06:29:56.999Z,63.10
2023-02-11T06:33:59.238Z,33.42
2023-02-11T06:38:01.362Z,62.10
2023-02-11T06:42:02.862Z,46.97
2023-02-11T06:46:04.562Z,49.72
2023-02-11T06:50:08.736Z,67.18
2023-02-11T06:54:12.175Z,53.20
2023-02-11T06:58:13.742Z,66.22
2023-02-11T07:02:15.213Z,60.40
2023-02-11T07:06:20.508Z,53.45
2023-02-11T07:10:21.982Z,60.30
2023-02-11T07:14:23.482Z,62.05
2023-02-11T07:18:24.935Z,63.00
2023-02-11T07:22:26.519Z,41.35
2023-02-11T07:26:29.063Z,56.63
2023-02-11T07:30:30.486Z,47.92
2023-02-11T07:34:32.157Z,41.92
2023-02-11T07:38:35.052Z,30.60
2023-02-11T07:42:36.856Z,55.50
2023-02-11T07:46:42.863Z,54.90
2023-02-11T07:50:44.434Z,58.90
2023-02-11T07:54:46.132Z,64.45
2023-02-11T07:58:47.996Z,55.55
2023-02-11T08:02:49.463Z,70.80
2023-02-11T08:06:52.782Z,46.38
2023-02-11T08:10:54.342Z,48.53
2023-02-11T08:14:56.302Z,33.05
2023-02-11T08:19:00.542Z,57.67
2023-02-11T08:23:02.157Z,59.85
2023-02-11T08:27:03.714Z,33.85
2023-02-11T08:31:15.852Z,61.28
2023-02-11T08:35:17.476Z,49.45
2023-02-11T08:39:22.596Z,50.03
2023-02-11T08:43:25.226Z,45.00
2023-02-11T08:47:26.949Z,55.92
2023-02-11T08:51:31.464Z,47.70
2023-02-11T08:55:32.913Z,50.30
2023-02-11T08:59:34.616Z,57.63
2023-02-11T09:03:36.097Z,46.88
2023-02-11T09:07:37.569Z,59.45
2023-02-11T09:11:40.654Z,40.80
2023-02-11T09:15:45.349Z,53.50
2023-02-11T09:19:46.822Z,44.60
2023-02-11T09:23:48.683Z,53.42
2023-02-11T09:27:51.297Z,58.25
2023-02-11T09:31:52.910Z,44.20
2023-02-11T09:35:54.448Z,32.53
2023-02-11T09:39:55.907Z,31.45
2023-02-11T09:43:59.668Z,29.48
2023-02-11T09:48:27.506Z,40.33
2023-02-11T09:52:41.662Z,41.00
2023-02-11T09:56:43.164Z,46.22
2023-02-11T10:01:06.798Z,40.20
2023-02-11T10:05:29.604Z,40.15
2023-02-11T10:09:49.733Z,32.97
2023-02-11T10:14:03.198Z,56.15
2023-02-11T10:18:34.370Z,47.55
2023-02-11T10:22:46.900Z,42.10
2023-02-11T10:26:49.036Z,50.45
2023-02-11T10:31:15.775Z,23.35
2023-02-11T10:35:21.629Z,39.40
2023-02-11T10:39:26.315Z,45.05
2023-02-11T10:43:30.747Z,35.72
2023-02-11T10:47:37.683Z,35.40
2023-02-11T10:51:39.140Z,22.73
2023-02-11T10:55:50.689Z,46.97
2023-02-11T10:59:59.122Z,40.88
2023-02-11T11:04:00.708Z,42.75
2023-02-11T11:08:05.897Z,23.80
2023-02-11T11:12:25.088Z,47.72
2023-02-11T11:16:29.459Z,41.38
2023-02-11T11:20:36.115Z,54.20
2023-02-11T11:24:46.518Z,25.13
2023-02-11T11:29:16.148Z,28.50
2023-02-11T11:33:24.985Z,34.97
2023-02-11T11:37:30.107Z,30.20
2023-02-11T11:41:34.004Z,41.72
2023-02-11T11:45:35.954Z,28.85
2023-02-11T11:50:11.975Z,47.40
2023-02-11T11:54:17.581Z,36.90
2023-02-11T11:58:22.048Z,56.58
2023-02-11T12:02:59.944Z,51.60
2023-02-11T12:07:25.883Z,47.65
2023-02-11T12:11:44.568Z,36.22
2023-02-11T12:15:56.163Z,49.60
2023-02-11T12:20:17.953Z,44.58
2023-02-11T12:24:27.428Z,39.40
2023-02-11T12:28:34.919Z,48.97
2023-02-11T12:33:05.362Z,40.15
2023-02-11T12:37:19.914Z,34.17
2023-02-11T12:42:12.134Z,17.25
2023-02-11T12:46:31.506Z,12.98
2023-02-11T12:51:00.647Z,41.03
2023-02-11T12:55:19.181Z,28.08
2023-02-11T12:59:29.699Z,20.20
2023-02-11T13:03:44.549Z,33.95
2023-02-11T13:07:47.597Z,34.03
2023-02-11T13:11:53.607Z,32.00
2023-02-11T13:16:09.893Z,33.63
2023-02-11T13:20:33.325Z,21.83
2023-02-11T13:24:49.290Z,36.22
2023-02-11T13:29:17.438Z,24.58
2023-02-11T13:33:30.064Z,33.38
2023-02-11T13:37:38.934Z,32.85
2023-02-11T13:41:41.703Z,36.40
2023-02-11T13:45:46.652Z,35.35
2023-02-11T13:49:53.365Z,13.90
2023-02-11T13:53:57.565Z,24.02
2023-02-11T13:58:28.119Z,17.83
2023-02-11T14:02:52.748Z,19.33
2023-02-11T14:07:47.143Z,27.50
2023-02-11T14:11:56.189Z,22.40
2023-02-11T14:16:08.487Z,36.13
2023-02-11T14:20:36.891Z,37.00
2023-02-11T14:24:38.345Z,16.02
2023-02-11T14:28:44.704Z,31.20
2023-02-11T14:32:58.285Z,11.40
2023-02-11T14:37:08.919Z,30.70
2023-02-11T14:41:22.883Z,31.50
2023-02-11T14:45:28.752Z,36.63
2023-02-11T14:49:40.221Z,29.20
2023-02-11T14:53:48.424Z,16.15
2023-02-11T14:58:11.948Z,27.35
2023-02-11T15:02:26.127Z,16.30
2023-02-11T15:06:40.943Z,19.63
2023-02-11T15:10:44.561Z,22.15
2023-02-11T15:14:49.095Z,130.38
2023-02-11T15:18:56.509Z,31.50
2023-02-11T15:23:04.833Z,20.35
2023-02-11T15:27:12.699Z,32.55
2023-02-11T15:31:16.768Z,18.42
2023-02-11T15:35:18.897Z,32.42
2023-02-11T15:39:32.451Z,35.33
2023-02-11T15:43:44.478Z,23.23
2023-02-11T15:47:53.328Z,11.05
2023-02-11T15:51:57.079Z,29.33
2023-02-11T15:56:25.344Z,19.42
2023-02-11T16:00:35.694Z,26.58
2023-02-11T16:04:37.772Z,26.13
2023-02-11T16:08:41.534Z,69.55
2023-02-11T16:12:54.529Z,8.38
2023-02-11T16:17:12.028Z,29.25
2023-02-11T16:21:18.756Z,21.42
2023-02-11T16:25:22.126Z,32.42
2023-02-11T16:29:27.212Z,27.42
2023-02-11T16:33:28.867Z,26.75
2023-02-11T16:37:30.388Z,25.80
2023-02-11T16:41:31.885Z,24.25
2023-02-11T16:45:38.449Z,7.88
2023-02-11T16:49:41.712Z,25.13
2023-02-11T16:53:43.162Z,28.30
2023-02-11T16:57:44.697Z,23.20
2023-02-11T17:01:47.442Z,25.92
2023-02-11T17:05:58.097Z,22.40
2023-02-11T17:09:59.773Z,16.50
2023-02-11T17:14:01.195Z,18.98
2023-02-11T17:18:02.973Z,19.77
2023-02-11T17:22:04.914Z,21.95
2023-02-11T17:26:07.190Z,21.73
2023-02-11T17:30:10.231Z,19.33
2023-02-11T17:34:12.041Z,21.15
2023-02-11T17:38:13.498Z,18.98
2023-02-11T17:42:15.080Z,7.05
2023-02-11T17:46:17.214Z,20.83
2023-02-11T17:50:18.873Z,20.73
2023-02-11T17:54:20.850Z,15.80
2023-02-11T17:58:23.025Z,17.70
2023-02-11T18:02:24.582Z,20.98
2023-02-11T18:06:26.289Z,18.27
2023-02-11T18:10:27.792Z,13.90
2023-02-11T18:14:29.284Z,19.40
2023-02-11T18:18:31.296Z,14.75
2023-02-11T18:22:38.440Z,14.00
2023-02-11T18:26:40.190Z,14.32
2023-02-11T18:30:41.680Z,16.77
2023-02-11T18:34:43.579Z,17.27
2023-02-11T18:38:45.198Z,14.77
2023-02-11T18:42:46.823Z,15.23
2023-02-11T18:46:48.330Z,15.52
2023-02-11T18:50:49.848Z,10.98
2023-02-11T18:54:52.231Z,17.65
2023-02-11T18:58:56.085Z,15.35
2023-02-11T19:02:58.520Z,16.48
2023-02-11T19:07:03.149Z,15.20
2023-02-11T19:11:05.055Z,13.60
2023-02-11T19:15:07.760Z,15.00
2023-02-11T19:19:09.548Z,17.08
2023-02-11T19:23:11.247Z,12.80
2023-02-11T19:27:12.802Z,14.85
2023-02-11T19:31:14.623Z,13.27
2023-02-11T19:35:16.268Z,10.23
2023-02-11T19:39:18.480Z,14.40
2023-02-11T19:43:19.921Z,14.50
2023-02-11T19:47:27.563Z,12.77
2023-02-11T19:51:30.090Z,14.00
2023-02-11T19:55:34.641Z,13.70
2023-02-11T19:59:36.148Z,16.02
2023-02-11T20:03:39.722Z,15.85
2023-02-11T20:07:42.890Z,13.98
2023-02-11T20:11:44.540Z,16.63
2023-02-11T20:15:45.972Z,14.93
2023-02-11T20:19:47.430Z,16.35
2023-02-11T20:23:50.022Z,13.02
2023-02-11T20:27:51.482Z,16.10
2023-02-11T20:31:54.088Z,17.13
2023-02-11T20:36:01.642Z,14.80
2023-02-11T20:40:03.393Z,14.02
2023-02-11T20:44:07.466Z,16.65
2023-02-11T20:48:08.909Z,14.00
2023-02-11T20:52:10.533Z,16.65
2023-02-11T20:56:12.385Z,12.13
2023-02-11T21:00:14.120Z,12.25
2023-02-11T21:04:21.820Z,11.77
2023-02-11T21:08:23.249Z,13.98
2023-02-11T21:12:24.680Z,9.98
2023-02-11T21:16:26.665Z,17.92
2023-02-11T21:20:28.193Z,9.75
2023-02-11T21:24:30.943Z,12.77
2023-02-11T21:28:32.849Z,13.77
2023-02-11T21:32:34.355Z,17.17
2023-02-11T21:36:35.823Z,10.23
2023-02-11T21:40:37.713Z,14.13
2023-02-11T21:44:39.211Z,15.32
2023-02-11T21:48:41.035Z,10.63
2023-02-11T21:52:42.672Z,17.90
2023-02-11T21:56:44.533Z,19.42
2023-02-11T22:00:46.018Z,17.33
2023-02-11T22:04:47.530Z,9.32
2023-02-11T22:08:50.391Z,13.27
2023-02-11T22:12:51.871Z,16.80
2023-02-11T22:16:53.324Z,17.33
2023-02-11T22:21:03.305Z,15.10
2023-02-11T22:25:04.964Z,12.70
2023-02-11T22:29:06.515Z,18.98
2023-02-11T22:33:07.902Z,14.13
2023-02-11T22:37:09.322Z,13.48
2023-02-11T22:41:11.745Z,19.50
2023-02-11T22:45:13.212Z,17.88
2023-02-11T22:49:16.320Z,16.42
2023-02-11T22:53:17.722Z,14.13
2023-02-11T22:57:19.109Z,17.48
2023-02-11T23:01:20.767Z,11.77
2023-02-11T23:05:22.241Z,13.63
2023-02-11T23:09:23.647Z,22.30
2023-02-11T23:13:25.061Z,16.70
2023-02-11T23:17:28.821Z,15.00
2023-02-11T23:21:32.848Z,15.43
2023-02-11T23:25:34.873Z,18.58
2023-02-11T23:29:36.328Z,19.95
2023-02-11T23:33:37.744Z,19.92
2023-02-11T23:37:39.179Z,16.73
2023-02-11T23:41:40.642Z,12.80
2023-02-11T23:45:42.032Z,15.98
2023-02-11T23:49:43.492Z,17.50
2023-02-11T23:53:49.239Z,10.65
2023-02-11T23:57:50.669Z,14.25
